sensor_id;sensor_type;location;lat;lon;timestamp;temperature;humidity
22526;DHT22;11429;50.842;4.386;2022-10-23T00:01:56;15.40;99.90
22526;DHT22;11429;50.842;4.386;2022-10-23T00:04:23;15.40;99.90
22526;DHT22;11429;50.842;4.386;2022-10-23T00:06:51;15.40;99.90
22526;DHT22;11429;50.842;4.386;2022-10-23T00:09:22;15.50;99.90
22526;DHT22;11429;50.842;4.386;2022-10-23T00:11:48;15.40;99.90
22526;DHT22;11429;50.842;4.386;2022-10-23T00:14:17;15.40;99.90
22526;DHT22;11429;50.842;4.386;2022-10-23T00:16:43;15.40;99.90
22526;DHT22;11429;50.842;4.386;2022-10-23T00:19:09;15.40;99.90
22526;DHT22;11429;50.842;4.386;2022-10-23T00:21:34;15.40;99.90
22526;DHT22;11429;50.842;4.386;2022-10-23T00:24:00;15.50;99.90
22526;DHT22;11429;50.842;4.386;2022-10-23T00:26:26;15.50;99.90
22526;DHT22;11429;50.842;4.386;2022-10-23T00:28:53;15.40;99.90
22526;DHT22;11429;50.842;4.386;2022-10-23T00:31:20;15.40;99.90
22526;DHT22;11429;50.842;4.386;2022-10-23T00:33:47;15.40;99.90
22526;DHT22;11429;50.842;4.386;2022-10-23T00:36:15;15.50;99.90
22526;DHT22;11429;50.842;4.386;2022-10-23T00:38:41;15.50;99.90
22526;DHT22;11429;50.842;4.386;2022-10-23T00:41:08;15.50;99.90
22526;DHT22;11429;50.842;4.386;2022-10-23T00:43:52;15.50;99.90
22526;DHT22;11429;50.842;4.386;2022-10-23T00:46:18;15.50;99.90
22526;DHT22;11429;50.842;4.386;2022-10-23T00:48:44;15.40;99.90
22526;DHT22;11429;50.842;4.386;2022-10-23T00:51:10;15.40;99.90
22526;DHT22;11429;50.842;4.386;2022-10-23T00:53:36;15.40;99.90
22526;DHT22;11429;50.842;4.386;2022-10-23T00:56:02;15.40;99.90
22526;DHT22;11429;50.842;4.386;2022-10-23T00:58:28;15.30;99.90
22526;DHT22;11429;50.842;4.386;2022-10-23T01:00:55;15.30;99.90
22526;DHT22;11429;50.842;4.386;2022-10-23T01:03:25;15.30;99.90
22526;DHT22;11429;50.842;4.386;2022-10-23T01:08:55;15.30;99.90
22526;DHT22;11429;50.842;4.386;2022-10-23T01:11:47;15.20;99.90
22526;DHT22;11429;50.842;4.386;2022-10-23T01:14:37;15.20;99.90
22526;DHT22;11429;50.842;4.386;2022-10-23T01:23:06;15.20;99.90
22526;DHT22;11429;50.842;4.386;2022-10-23T01:28:25;15.30;99.90
22526;DHT22;11429;50.842;4.386;2022-10-23T01:30:55;15.20;99.90
22526;DHT22;11429;50.842;4.386;2022-10-23T01:33:32;15.30;99.90
22526;DHT22;11429;50.842;4.386;2022-10-23T01:36:04;15.30;99.90
22526;DHT22;11429;50.842;4.386;2022-10-23T01:38:55;15.30;99.90
22526;DHT22;11429;50.842;4.386;2022-10-23T01:41:30;15.30;99.90
22526;DHT22;11429;50.842;4.386;2022-10-23T01:44:03;15.30;99.90
22526;DHT22;11429;50.842;4.386;2022-10-23T01:46:31;15.30;99.90
22526;DHT22;11429;50.842;4.386;2022-10-23T01:49:02;15.30;99.90
22526;DHT22;11429;50.842;4.386;2022-10-23T01:51:30;15.30;99.90
22526;DHT22;11429;50.842;4.386;2022-10-23T01:53:58;15.30;99.90
22526;DHT22;11429;50.842;4.386;2022-10-23T01:56:31;15.30;99.90
22526;DHT22;11429;50.842;4.386;2022-10-23T01:59:01;15.30;99.90
22526;DHT22;11429;50.842;4.386;2022-10-23T02:01:29;15.30;99.90
22526;DHT22;11429;50.842;4.386;2022-10-23T02:03:56;15.20;99.90
22526;DHT22;11429;50.842;4.386;2022-10-23T02:06:23;15.30;99.90
22526;DHT22;11429;50.842;4.386;2022-10-23T02:08:49;15.30;99.90
22526;DHT22;11429;50.842;4.386;2022-10-23T02:11:20;15.30;99.90
22526;DHT22;11429;50.842;4.386;2022-10-23T02:16:38;15.30;99.90
22526;DHT22;11429;50.842;4.386;2022-10-23T02:24:12;15.30;99.90
22526;DHT22;11429;50.842;4.386;2022-10-23T02:29:27;15.20;99.90
22526;DHT22;11429;50.842;4.386;2022-10-23T02:31:55;15.30;99.90
22526;DHT22;11429;50.842;4.386;2022-10-23T02:34:21;15.20;99.90
22526;DHT22;11429;50.842;4.386;2022-10-23T02:36:47;15.20;99.90
22526;DHT22;11429;50.842;4.386;2022-10-23T02:39:13;15.20;99.90
22526;DHT22;11429;50.842;4.386;2022-10-23T02:41:50;15.20;99.90
22526;DHT22;11429;50.842;4.386;2022-10-23T02:52:23;15.20;99.90
22526;DHT22;11429;50.842;4.386;2022-10-23T02:57:43;15.30;99.90
22526;DHT22;11429;50.842;4.386;2022-10-23T03:00:15;15.30;99.90
22526;DHT22;11429;50.842;4.386;2022-10-23T03:05:52;15.20;99.90
22526;DHT22;11429;50.842;4.386;2022-10-23T03:08:18;15.20;99.90
22526;DHT22;11429;50.842;4.386;2022-10-23T03:10:44;15.30;99.90
22526;DHT22;11429;50.842;4.386;2022-10-23T03:13:10;15.30;99.90
22526;DHT22;11429;50.842;4.386;2022-10-23T03:15:36;15.30;99.90
22526;DHT22;11429;50.842;4.386;2022-10-23T03:18:02;15.20;99.90
22526;DHT22;11429;50.842;4.386;2022-10-23T03:20:27;15.30;99.90
22526;DHT22;11429;50.842;4.386;2022-10-23T03:22:53;15.30;99.90
22526;DHT22;11429;50.842;4.386;2022-10-23T03:25:19;15.40;99.90
22526;DHT22;11429;50.842;4.386;2022-10-23T03:27:44;15.40;99.90
22526;DHT22;11429;50.842;4.386;2022-10-23T03:30:10;15.40;99.90
22526;DHT22;11429;50.842;4.386;2022-10-23T03:32:36;15.50;99.90
22526;DHT22;11429;50.842;4.386;2022-10-23T03:35:02;15.40;99.90
22526;DHT22;11429;50.842;4.386;2022-10-23T03:37:28;15.40;99.90
22526;DHT22;11429;50.842;4.386;2022-10-23T03:39:53;15.30;99.90
22526;DHT22;11429;50.842;4.386;2022-10-23T03:42:19;15.30;99.90
22526;DHT22;11429;50.842;4.386;2022-10-23T03:44:44;15.40;99.90
22526;DHT22;11429;50.842;4.386;2022-10-23T03:47:10;15.40;99.90
22526;DHT22;11429;50.842;4.386;2022-10-23T03:49:37;15.30;99.90
22526;DHT22;11429;50.842;4.386;2022-10-23T03:52:05;15.30;99.90
22526;DHT22;11429;50.842;4.386;2022-10-23T03:54:31;15.30;99.90
22526;DHT22;11429;50.842;4.386;2022-10-23T03:56:58;15.30;99.90
22526;DHT22;11429;50.842;4.386;2022-10-23T03:59:23;15.30;99.90
22526;DHT22;11429;50.842;4.386;2022-10-23T04:01:50;15.30;99.90
22526;DHT22;11429;50.842;4.386;2022-10-23T04:04:16;15.30;99.90
22526;DHT22;11429;50.842;4.386;2022-10-23T04:06:42;15.20;99.90
22526;DHT22;11429;50.842;4.386;2022-10-23T04:09:08;15.20;99.90
22526;DHT22;11429;50.842;4.386;2022-10-23T04:11:34;15.30;99.90
22526;DHT22;11429;50.842;4.386;2022-10-23T04:14:00;15.30;99.90
22526;DHT22;11429;50.842;4.386;2022-10-23T04:16:25;15.20;99.90
22526;DHT22;11429;50.842;4.386;2022-10-23T04:18:51;15.30;99.90
22526;DHT22;11429;50.842;4.386;2022-10-23T04:21:17;15.30;99.90
22526;DHT22;11429;50.842;4.386;2022-10-23T04:23:43;15.30;99.90
22526;DHT22;11429;50.842;4.386;2022-10-23T04:26:09;15.30;99.90
22526;DHT22;11429;50.842;4.386;2022-10-23T04:28:34;15.40;99.90
22526;DHT22;11429;50.842;4.386;2022-10-23T04:31:00;15.40;99.90
22526;DHT22;11429;50.842;4.386;2022-10-23T04:33:26;15.30;99.90
22526;DHT22;11429;50.842;4.386;2022-10-23T04:35:52;15.40;99.90
22526;DHT22;11429;50.842;4.386;2022-10-23T04:38:17;15.50;99.90
22526;DHT22;11429;50.842;4.386;2022-10-23T04:40:43;15.50;99.90
22526;DHT22;11429;50.842;4.386;2022-10-23T04:43:09;15.40;99.90
22526;DHT22;11429;50.842;4.386;2022-10-23T04:45:34;15.50;99.90
22526;DHT22;11429;50.842;4.386;2022-10-23T04:48:00;15.50;99.90
22526;DHT22;11429;50.842;4.386;2022-10-23T04:50:26;15.50;99.90
22526;DHT22;11429;50.842;4.386;2022-10-23T04:52:55;15.50;99.90
22526;DHT22;11429;50.842;4.386;2022-10-23T04:55:22;15.60;99.90
22526;DHT22;11429;50.842;4.386;2022-10-23T04:57:50;15.80;99.90
22526;DHT22;11429;50.842;4.386;2022-10-23T05:00:16;15.70;99.90
22526;DHT22;11429;50.842;4.386;2022-10-23T05:02:42;15.70;99.90
22526;DHT22;11429;50.842;4.386;2022-10-23T05:05:08;15.70;99.90
22526;DHT22;11429;50.842;4.386;2022-10-23T05:07:35;15.70;99.90
22526;DHT22;11429;50.842;4.386;2022-10-23T05:10:01;15.60;99.90
22526;DHT22;11429;50.842;4.386;2022-10-23T05:12:28;15.60;99.90
22526;DHT22;11429;50.842;4.386;2022-10-23T05:14:53;15.60;99.90
22526;DHT22;11429;50.842;4.386;2022-10-23T05:17:32;15.60;99.90
22526;DHT22;11429;50.842;4.386;2022-10-23T05:20:02;15.70;99.90
22526;DHT22;11429;50.842;4.386;2022-10-23T05:22:31;15.70;99.90
22526;DHT22;11429;50.842;4.386;2022-10-23T05:24:58;15.70;99.90
22526;DHT22;11429;50.842;4.386;2022-10-23T05:27:26;15.70;99.90
22526;DHT22;11429;50.842;4.386;2022-10-23T05:29:52;15.70;99.90
22526;DHT22;11429;50.842;4.386;2022-10-23T05:32:18;15.70;99.90
22526;DHT22;11429;50.842;4.386;2022-10-23T05:34:44;15.70;99.90
22526;DHT22;11429;50.842;4.386;2022-10-23T05:37:11;15.70;99.90
22526;DHT22;11429;50.842;4.386;2022-10-23T05:39:38;15.80;99.90
22526;DHT22;11429;50.842;4.386;2022-10-23T05:42:04;15.90;99.90
22526;DHT22;11429;50.842;4.386;2022-10-23T05:44:30;15.90;99.90
22526;DHT22;11429;50.842;4.386;2022-10-23T05:46:55;15.80;99.90
22526;DHT22;11429;50.842;4.386;2022-10-23T05:49:23;15.80;99.90
22526;DHT22;11429;50.842;4.386;2022-10-23T05:51:49;15.80;99.90
22526;DHT22;11429;50.842;4.386;2022-10-23T05:54:15;15.80;99.90
22526;DHT22;11429;50.842;4.386;2022-10-23T05:56:40;15.90;99.90
22526;DHT22;11429;50.842;4.386;2022-10-23T05:59:06;15.90;99.90
22526;DHT22;11429;50.842;4.386;2022-10-23T06:01:32;15.80;99.90
22526;DHT22;11429;50.842;4.386;2022-10-23T06:03:59;15.80;99.90
22526;DHT22;11429;50.842;4.386;2022-10-23T06:06:25;15.70;99.90
22526;DHT22;11429;50.842;4.386;2022-10-23T06:08:51;15.80;99.90
22526;DHT22;11429;50.842;4.386;2022-10-23T06:11:17;15.70;99.90
22526;DHT22;11429;50.842;4.386;2022-10-23T06:13:43;15.70;99.90
22526;DHT22;11429;50.842;4.386;2022-10-23T06:18:35;15.60;99.90
22526;DHT22;11429;50.842;4.386;2022-10-23T06:21:01;15.60;99.90
22526;DHT22;11429;50.842;4.386;2022-10-23T06:23:28;15.70;99.90
22526;DHT22;11429;50.842;4.386;2022-10-23T06:25:54;15.60;99.90
22526;DHT22;11429;50.842;4.386;2022-10-23T06:28:21;15.60;99.90
22526;DHT22;11429;50.842;4.386;2022-10-23T06:30:47;15.60;99.90
22526;DHT22;11429;50.842;4.386;2022-10-23T06:33:12;15.60;99.90
22526;DHT22;11429;50.842;4.386;2022-10-23T06:35:38;15.70;99.90
22526;DHT22;11429;50.842;4.386;2022-10-23T06:38:03;15.70;99.90
22526;DHT22;11429;50.842;4.386;2022-10-23T06:40:29;15.70;99.90
22526;DHT22;11429;50.842;4.386;2022-10-23T06:42:56;15.60;99.90
22526;DHT22;11429;50.842;4.386;2022-10-23T06:45:22;15.60;99.90
22526;DHT22;11429;50.842;4.386;2022-10-23T06:47:51;15.70;99.90
22526;DHT22;11429;50.842;4.386;2022-10-23T06:50:18;15.70;99.90
22526;DHT22;11429;50.842;4.386;2022-10-23T06:52:43;15.70;99.90
22526;DHT22;11429;50.842;4.386;2022-10-23T06:55:09;15.80;99.90
22526;DHT22;11429;50.842;4.386;2022-10-23T06:57:35;15.80;99.90
22526;DHT22;11429;50.842;4.386;2022-10-23T07:00:00;15.80;99.90
22526;DHT22;11429;50.842;4.386;2022-10-23T07:02:26;15.80;99.90
22526;DHT22;11429;50.842;4.386;2022-10-23T07:04:51;15.80;99.90
22526;DHT22;11429;50.842;4.386;2022-10-23T07:07:17;16.00;99.90
22526;DHT22;11429;50.842;4.386;2022-10-23T07:09:43;16.00;99.90
22526;DHT22;11429;50.842;4.386;2022-10-23T07:12:09;16.00;99.90
22526;DHT22;11429;50.842;4.386;2022-10-23T07:14:43;16.00;99.90
22526;DHT22;11429;50.842;4.386;2022-10-23T07:17:08;16.20;99.90
22526;DHT22;11429;50.842;4.386;2022-10-23T07:19:36;16.40;99.90
22526;DHT22;11429;50.842;4.386;2022-10-23T07:22:04;16.40;99.90
22526;DHT22;11429;50.842;4.386;2022-10-23T07:24:29;16.40;99.90
22526;DHT22;11429;50.842;4.386;2022-10-23T07:26:57;16.50;99.90
22526;DHT22;11429;50.842;4.386;2022-10-23T07:29:23;16.50;99.90
22526;DHT22;11429;50.842;4.386;2022-10-23T07:31:48;16.40;99.90
22526;DHT22;11429;50.842;4.386;2022-10-23T07:34:29;16.40;99.90
22526;DHT22;11429;50.842;4.386;2022-10-23T07:36:56;16.40;99.90
22526;DHT22;11429;50.842;4.386;2022-10-23T07:39:22;16.30;99.90
22526;DHT22;11429;50.842;4.386;2022-10-23T07:41:48;16.30;99.90
22526;DHT22;11429;50.842;4.386;2022-10-23T07:44:13;16.40;99.90
22526;DHT22;11429;50.842;4.386;2022-10-23T07:46:39;16.40;99.90
22526;DHT22;11429;50.842;4.386;2022-10-23T07:49:07;16.50;99.90
22526;DHT22;11429;50.842;4.386;2022-10-23T07:51:34;16.40;99.90
22526;DHT22;11429;50.842;4.386;2022-10-23T07:54:00;16.50;99.90
22526;DHT22;11429;50.842;4.386;2022-10-23T07:56:27;16.50;99.90
22526;DHT22;11429;50.842;4.386;2022-10-23T07:58:57;16.50;99.90
22526;DHT22;11429;50.842;4.386;2022-10-23T08:01:38;16.40;99.90
22526;DHT22;11429;50.842;4.386;2022-10-23T08:04:04;16.50;99.90
22526;DHT22;11429;50.842;4.386;2022-10-23T08:06:30;16.50;99.90
22526;DHT22;11429;50.842;4.386;2022-10-23T08:08:56;16.50;99.90
22526;DHT22;11429;50.842;4.386;2022-10-23T08:11:23;16.50;99.90
22526;DHT22;11429;50.842;4.386;2022-10-23T08:13:55;16.50;99.90
22526;DHT22;11429;50.842;4.386;2022-10-23T08:16:22;16.50;99.90
22526;DHT22;11429;50.842;4.386;2022-10-23T08:18:49;16.70;99.90
22526;DHT22;11429;50.842;4.386;2022-10-23T08:21:15;16.70;99.90
22526;DHT22;11429;50.842;4.386;2022-10-23T08:23:42;16.80;99.90
22526;DHT22;11429;50.842;4.386;2022-10-23T08:26:09;16.70;99.90
22526;DHT22;11429;50.842;4.386;2022-10-23T08:28:34;16.60;99.90
22526;DHT22;11429;50.842;4.386;2022-10-23T08:31:11;16.60;99.90
22526;DHT22;11429;50.842;4.386;2022-10-23T08:33:38;16.60;99.90
22526;DHT22;11429;50.842;4.386;2022-10-23T08:36:23;16.60;99.90
22526;DHT22;11429;50.842;4.386;2022-10-23T08:38:51;16.60;99.90
22526;DHT22;11429;50.842;4.386;2022-10-23T08:41:32;16.50;99.90
22526;DHT22;11429;50.842;4.386;2022-10-23T08:49:53;16.80;99.90
22526;DHT22;11429;50.842;4.386;2022-10-23T08:52:35;16.90;99.90
22526;DHT22;11429;50.842;4.386;2022-10-23T08:55:14;16.90;99.90
22526;DHT22;11429;50.842;4.386;2022-10-23T08:58:03;16.70;99.90
22526;DHT22;11429;50.842;4.386;2022-10-23T09:00:33;16.70;99.90
22526;DHT22;11429;50.842;4.386;2022-10-23T09:03:02;16.90;99.90
22526;DHT22;11429;50.842;4.386;2022-10-23T09:08:46;16.70;99.90
22526;DHT22;11429;50.842;4.386;2022-10-23T09:11:32;16.60;99.90
22526;DHT22;11429;50.842;4.386;2022-10-23T09:19:34;16.60;99.90
22526;DHT22;11429;50.842;4.386;2022-10-23T09:22:00;16.60;99.90
22526;DHT22;11429;50.842;4.386;2022-10-23T09:24:27;16.60;99.90
22526;DHT22;11429;50.842;4.386;2022-10-23T09:26:56;16.60;99.90
22526;DHT22;11429;50.842;4.386;2022-10-23T09:29:32;16.70;99.90
22526;DHT22;11429;50.842;4.386;2022-10-23T09:32:05;16.80;99.90
22526;DHT22;11429;50.842;4.386;2022-10-23T09:34:32;16.80;99.90
22526;DHT22;11429;50.842;4.386;2022-10-23T09:37:00;16.90;99.90
22526;DHT22;11429;50.842;4.386;2022-10-23T09:39:32;17.00;99.90
22526;DHT22;11429;50.842;4.386;2022-10-23T09:42:19;17.00;99.90
22526;DHT22;11429;50.842;4.386;2022-10-23T09:44:50;17.10;99.90
22526;DHT22;11429;50.842;4.386;2022-10-23T09:47:21;17.20;99.90
22526;DHT22;11429;50.842;4.386;2022-10-23T09:49:55;17.30;99.90
22526;DHT22;11429;50.842;4.386;2022-10-23T09:52:35;17.40;99.90
22526;DHT22;11429;50.842;4.386;2022-10-23T09:55:14;17.30;99.90
22526;DHT22;11429;50.842;4.386;2022-10-23T09:57:43;17.40;99.90
22526;DHT22;11429;50.842;4.386;2022-10-23T10:00:16;17.40;99.90
22526;DHT22;11429;50.842;4.386;2022-10-23T10:05:34;17.40;99.90
22526;DHT22;11429;50.842;4.386;2022-10-23T10:08:47;17.40;99.90
22526;DHT22;11429;50.842;4.386;2022-10-23T10:10:53;17.50;99.90
22526;DHT22;11429;50.842;4.386;2022-10-23T10:27:20;18.00;99.90
22526;DHT22;11429;50.842;4.386;2022-10-23T10:41:28;18.30;99.90
22526;DHT22;11429;50.842;4.386;2022-10-23T10:49:39;18.30;99.90
22526;DHT22;11429;50.842;4.386;2022-10-23T10:55:28;18.50;99.90
22526;DHT22;11429;50.842;4.386;2022-10-23T10:58:41;18.50;99.90
22526;DHT22;11429;50.842;4.386;2022-10-23T11:04:29;18.60;99.90
22526;DHT22;11429;50.842;4.386;2022-10-23T11:06:56;18.60;99.90
22526;DHT22;11429;50.842;4.386;2022-10-23T11:09:27;18.60;99.90
22526;DHT22;11429;50.842;4.386;2022-10-23T11:11:54;18.70;99.90
22526;DHT22;11429;50.842;4.386;2022-10-23T11:14:22;18.70;99.90
22526;DHT22;11429;50.842;4.386;2022-10-23T11:17:17;18.60;99.90
22526;DHT22;11429;50.842;4.386;2022-10-23T11:23:05;18.80;99.90
22526;DHT22;11429;50.842;4.386;2022-10-23T11:28:51;18.90;99.90
22526;DHT22;11429;50.842;4.386;2022-10-23T11:32:06;19.00;99.90
22526;DHT22;11429;50.842;4.386;2022-10-23T11:34:34;19.10;99.90
22526;DHT22;11429;50.842;4.386;2022-10-23T11:37:04;19.30;99.90
22526;DHT22;11429;50.842;4.386;2022-10-23T11:39:32;19.30;99.90
22526;DHT22;11429;50.842;4.386;2022-10-23T11:44:46;19.50;99.90
22526;DHT22;11429;50.842;4.386;2022-10-23T11:47:34;19.60;99.90
22526;DHT22;11429;50.842;4.386;2022-10-23T11:52:37;19.60;99.90
22526;DHT22;11429;50.842;4.386;2022-10-23T11:55:23;19.70;99.90
22526;DHT22;11429;50.842;4.386;2022-10-23T11:58:09;19.90;99.90
22526;DHT22;11429;50.842;4.386;2022-10-23T12:00:52;20.10;99.90
22526;DHT22;11429;50.842;4.386;2022-10-23T12:03:34;20.00;99.90
22526;DHT22;11429;50.842;4.386;2022-10-23T12:06:03;20.00;99.90
22526;DHT22;11429;50.842;4.386;2022-10-23T12:08:33;20.10;99.90
22526;DHT22;11429;50.842;4.386;2022-10-23T12:11:00;20.20;99.90
22526;DHT22;11429;50.842;4.386;2022-10-23T12:13:47;20.10;99.90
22526;DHT22;11429;50.842;4.386;2022-10-23T12:16:13;20.00;99.90
22526;DHT22;11429;50.842;4.386;2022-10-23T12:18:50;20.00;99.90
22526;DHT22;11429;50.842;4.386;2022-10-23T12:21:19;20.00;99.90
22526;DHT22;11429;50.842;4.386;2022-10-23T12:26:37;20.10;99.90
22526;DHT22;11429;50.842;4.386;2022-10-23T12:32:20;20.30;99.90
22526;DHT22;11429;50.842;4.386;2022-10-23T12:40:43;20.30;99.90
22526;DHT22;11429;50.842;4.386;2022-10-23T12:43:25;20.30;99.90
22526;DHT22;11429;50.842;4.386;2022-10-23T12:45:51;20.30;99.90
22526;DHT22;11429;50.842;4.386;2022-10-23T12:48:20;20.30;99.90
22526;DHT22;11429;50.842;4.386;2022-10-23T12:50:55;20.40;99.90
22526;DHT22;11429;50.842;4.386;2022-10-23T12:53:22;20.50;99.90
22526;DHT22;11429;50.842;4.386;2022-10-23T12:55:58;20.50;99.90
22526;DHT22;11429;50.842;4.386;2022-10-23T12:58:29;20.60;99.90
22526;DHT22;11429;50.842;4.386;2022-10-23T13:01:00;20.60;99.90
22526;DHT22;11429;50.842;4.386;2022-10-23T13:03:29;20.70;99.90
22526;DHT22;11429;50.842;4.386;2022-10-23T13:05:57;20.50;99.90
22526;DHT22;11429;50.842;4.386;2022-10-23T13:08:28;20.50;99.90
22526;DHT22;11429;50.842;4.386;2022-10-23T13:10:57;20.60;99.90
22526;DHT22;11429;50.842;4.386;2022-10-23T13:13:24;20.60;99.90
22526;DHT22;11429;50.842;4.386;2022-10-23T13:15:50;20.60;99.90
22526;DHT22;11429;50.842;4.386;2022-10-23T13:18:16;20.60;99.90
22526;DHT22;11429;50.842;4.386;2022-10-23T13:23:30;20.70;99.90
22526;DHT22;11429;50.842;4.386;2022-10-23T13:28:31;20.70;99.90
22526;DHT22;11429;50.842;4.386;2022-10-23T13:31:04;20.60;99.90
22526;DHT22;11429;50.842;4.386;2022-10-23T13:33:44;20.70;99.90
22526;DHT22;11429;50.842;4.386;2022-10-23T13:38:39;20.60;99.90
22526;DHT22;11429;50.842;4.386;2022-10-23T13:41:11;20.60;99.90
22526;DHT22;11429;50.842;4.386;2022-10-23T13:43:38;20.60;99.90
22526;DHT22;11429;50.842;4.386;2022-10-23T13:46:04;20.60;99.90
22526;DHT22;11429;50.842;4.386;2022-10-23T13:48:29;20.60;99.90
22526;DHT22;11429;50.842;4.386;2022-10-23T13:51:13;20.60;99.90
22526;DHT22;11429;50.842;4.386;2022-10-23T13:53:40;20.60;99.90
22526;DHT22;11429;50.842;4.386;2022-10-23T13:56:11;20.50;99.90
22526;DHT22;11429;50.842;4.386;2022-10-23T13:58:41;20.60;99.90
22526;DHT22;11429;50.842;4.386;2022-10-23T14:01:28;20.60;99.90
22526;DHT22;11429;50.842;4.386;2022-10-23T14:03:57;20.60;99.90
22526;DHT22;11429;50.842;4.386;2022-10-23T14:06:24;20.60;99.90
22526;DHT22;11429;50.842;4.386;2022-10-23T14:08:51;20.60;99.90
22526;DHT22;11429;50.842;4.386;2022-10-23T14:11:18;20.50;99.90
22526;DHT22;11429;50.842;4.386;2022-10-23T14:13:44;20.50;99.90
22526;DHT22;11429;50.842;4.386;2022-10-23T14:16:15;20.50;99.90
22526;DHT22;11429;50.842;4.386;2022-10-23T14:18:44;20.50;99.90
22526;DHT22;11429;50.842;4.386;2022-10-23T14:21:15;20.50;99.90
22526;DHT22;11429;50.842;4.386;2022-10-23T14:23:45;20.60;99.90
22526;DHT22;11429;50.842;4.386;2022-10-23T14:26:14;20.60;99.90
22526;DHT22;11429;50.842;4.386;2022-10-23T14:28:42;20.60;99.90
22526;DHT22;11429;50.842;4.386;2022-10-23T14:31:10;20.70;99.90
22526;DHT22;11429;50.842;4.386;2022-10-23T14:33:37;20.60;99.90
22526;DHT22;11429;50.842;4.386;2022-10-23T14:36:03;20.60;99.90
22526;DHT22;11429;50.842;4.386;2022-10-23T14:38:30;20.60;99.90
22526;DHT22;11429;50.842;4.386;2022-10-23T14:40:56;20.50;99.90
22526;DHT22;11429;50.842;4.386;2022-10-23T14:43:27;20.50;99.90
22526;DHT22;11429;50.842;4.386;2022-10-23T14:45:56;20.50;99.90
22526;DHT22;11429;50.842;4.386;2022-10-23T14:48:22;20.40;99.90
22526;DHT22;11429;50.842;4.386;2022-10-23T14:50:49;20.40;99.90
22526;DHT22;11429;50.842;4.386;2022-10-23T14:53:15;20.40;99.90
22526;DHT22;11429;50.842;4.386;2022-10-23T14:55:41;20.30;99.90
22526;DHT22;11429;50.842;4.386;2022-10-23T14:58:07;20.20;99.90
22526;DHT22;11429;50.842;4.386;2022-10-23T15:00:33;20.20;99.90
22526;DHT22;11429;50.842;4.386;2022-10-23T15:02:59;20.20;99.90
22526;DHT22;11429;50.842;4.386;2022-10-23T15:05:25;20.20;99.90
22526;DHT22;11429;50.842;4.386;2022-10-23T15:07:51;20.20;99.90
22526;DHT22;11429;50.842;4.386;2022-10-23T15:10:16;20.20;99.90
22526;DHT22;11429;50.842;4.386;2022-10-23T15:12:43;20.10;99.90
22526;DHT22;11429;50.842;4.386;2022-10-23T15:15:09;20.10;99.90
22526;DHT22;11429;50.842;4.386;2022-10-23T15:17:35;20.10;99.90
22526;DHT22;11429;50.842;4.386;2022-10-23T15:20:09;20.10;99.90
22526;DHT22;11429;50.842;4.386;2022-10-23T15:22:35;20.00;99.90
22526;DHT22;11429;50.842;4.386;2022-10-23T15:25:03;20.00;99.90
22526;DHT22;11429;50.842;4.386;2022-10-23T15:27:29;20.00;99.90
22526;DHT22;11429;50.842;4.386;2022-10-23T15:29:55;20.00;99.90
22526;DHT22;11429;50.842;4.386;2022-10-23T15:32:24;20.00;99.90
22526;DHT22;11429;50.842;4.386;2022-10-23T15:34:50;20.00;99.90
22526;DHT22;11429;50.842;4.386;2022-10-23T15:37:18;20.00;99.90
22526;DHT22;11429;50.842;4.386;2022-10-23T15:39:45;20.00;99.90
22526;DHT22;11429;50.842;4.386;2022-10-23T15:42:14;20.00;99.90
22526;DHT22;11429;50.842;4.386;2022-10-23T15:44:40;20.00;99.90
22526;DHT22;11429;50.842;4.386;2022-10-23T15:47:06;20.00;99.90
22526;DHT22;11429;50.842;4.386;2022-10-23T15:49:32;20.00;99.90
22526;DHT22;11429;50.842;4.386;2022-10-23T15:51:58;20.00;99.90
22526;DHT22;11429;50.842;4.386;2022-10-23T15:54:24;20.00;99.90
22526;DHT22;11429;50.842;4.386;2022-10-23T15:56:52;20.00;99.90
22526;DHT22;11429;50.842;4.386;2022-10-23T15:59:19;20.00;99.90
22526;DHT22;11429;50.842;4.386;2022-10-23T16:01:46;20.00;99.90
22526;DHT22;11429;50.842;4.386;2022-10-23T16:04:12;19.90;99.90
22526;DHT22;11429;50.842;4.386;2022-10-23T16:06:37;19.90;99.90
22526;DHT22;11429;50.842;4.386;2022-10-23T16:09:03;19.80;99.90
22526;DHT22;11429;50.842;4.386;2022-10-23T16:11:33;19.70;99.90
22526;DHT22;11429;50.842;4.386;2022-10-23T16:13:59;19.60;99.90
22526;DHT22;11429;50.842;4.386;2022-10-23T16:16:26;19.50;99.90
22526;DHT22;11429;50.842;4.386;2022-10-23T16:18:52;19.50;99.90
22526;DHT22;11429;50.842;4.386;2022-10-23T16:21:25;19.40;99.90
22526;DHT22;11429;50.842;4.386;2022-10-23T16:23:52;19.40;99.90
22526;DHT22;11429;50.842;4.386;2022-10-23T16:26:19;19.30;99.90
22526;DHT22;11429;50.842;4.386;2022-10-23T16:28:46;19.30;99.90
22526;DHT22;11429;50.842;4.386;2022-10-23T16:31:14;19.20;99.90
22526;DHT22;11429;50.842;4.386;2022-10-23T16:33:40;19.20;99.90
22526;DHT22;11429;50.842;4.386;2022-10-23T16:36:08;19.10;99.90
22526;DHT22;11429;50.842;4.386;2022-10-23T16:38:34;19.10;99.90
22526;DHT22;11429;50.842;4.386;2022-10-23T16:41:00;19.10;99.90
22526;DHT22;11429;50.842;4.386;2022-10-23T16:43:26;19.10;99.90
22526;DHT22;11429;50.842;4.386;2022-10-23T16:46:07;19.10;99.90
22526;DHT22;11429;50.842;4.386;2022-10-23T16:48:35;19.00;99.90
22526;DHT22;11429;50.842;4.386;2022-10-23T16:51:09;19.00;99.90
22526;DHT22;11429;50.842;4.386;2022-10-23T16:53:35;19.00;99.90
22526;DHT22;11429;50.842;4.386;2022-10-23T16:56:06;19.00;99.90
22526;DHT22;11429;50.842;4.386;2022-10-23T16:58:32;19.00;99.90
22526;DHT22;11429;50.842;4.386;2022-10-23T17:01:01;19.00;99.90
22526;DHT22;11429;50.842;4.386;2022-10-23T17:03:28;19.00;99.90
22526;DHT22;11429;50.842;4.386;2022-10-23T17:06:02;19.00;99.90
22526;DHT22;11429;50.842;4.386;2022-10-23T17:08:29;19.00;99.90
22526;DHT22;11429;50.842;4.386;2022-10-23T17:11:13;19.00;99.90
22526;DHT22;11429;50.842;4.386;2022-10-23T17:13:44;19.00;99.90
22526;DHT22;11429;50.842;4.386;2022-10-23T17:16:24;19.00;99.90
22526;DHT22;11429;50.842;4.386;2022-10-23T17:18:50;19.00;99.90
22526;DHT22;11429;50.842;4.386;2022-10-23T17:21:18;19.00;99.90
22526;DHT22;11429;50.842;4.386;2022-10-23T17:23:44;19.00;99.90
22526;DHT22;11429;50.842;4.386;2022-10-23T17:26:12;19.00;99.90
22526;DHT22;11429;50.842;4.386;2022-10-23T17:28:38;19.00;99.90
22526;DHT22;11429;50.842;4.386;2022-10-23T17:33:37;19.00;99.90
22526;DHT22;11429;50.842;4.386;2022-10-23T17:36:03;19.00;99.90
22526;DHT22;11429;50.842;4.386;2022-10-23T17:38:29;19.00;99.90
22526;DHT22;11429;50.842;4.386;2022-10-23T17:40:55;19.00;99.90
22526;DHT22;11429;50.842;4.386;2022-10-23T17:43:20;19.00;99.90
22526;DHT22;11429;50.842;4.386;2022-10-23T17:45:46;19.00;99.90
22526;DHT22;11429;50.842;4.386;2022-10-23T17:48:12;19.00;99.90
22526;DHT22;11429;50.842;4.386;2022-10-23T17:50:42;19.00;99.90